createdAt,value
2023-03-06T00:00:44.455Z,100669.56
2023-03-06T00:05:47.612Z,100670.09
2023-03-06T00:10:50.146Z,100655.94
2023-03-06T00:15:53.046Z,100677.81
2023-03-06T00:20:55.632Z,100672.75
2023-03-06T00:25:58.176Z,100673.22
2023-03-06T00:31:01.324Z,100677.31
2023-03-06T00:36:06.075Z,100680.16
2023-03-06T00:41:13.134Z,100659.53
2023-03-06T00:46:15.575Z,100661.00
2023-03-06T00:51:19.942Z,100646.16
2023-03-06T00:56:22.539Z,100633.81
2023-03-06T01:01:25.053Z,100625.59
2023-03-06T01:06:28.562Z,100613.91
2023-03-06T01:11:31.433Z,100628.25
2023-03-06T01:16:34.122Z,100623.78
2023-03-06T01:21:36.619Z,100624.28
2023-03-06T01:26:39.176Z,100620.31
2023-03-06T01:31:41.739Z,100636.13
2023-03-06T01:36:44.396Z,100634.16
2023-03-06T01:41:46.925Z,100629.16
2023-03-06T01:46:49.464Z,100627.19
2023-03-06T01:51:54.773Z,100631.00
2023-03-06T01:57:25.533Z,100624.28
2023-03-06T02:02:28.261Z,100623.31
2023-03-06T02:07:31.707Z,100617.88
2023-03-06T02:12:34.291Z,100619.03
2023-03-06T02:17:37.425Z,100631.69
2023-03-06T02:22:49.169Z,100627.41
2023-03-06T02:27:52.715Z,100625.75
2023-03-06T02:32:55.979Z,100632.81
2023-03-06T02:38:03.158Z,100635.72
2023-03-06T02:43:05.965Z,100616.63
2023-03-06T02:48:09.672Z,100609.44
2023-03-06T02:53:14.142Z,100618.22
2023-03-06T02:58:19.900Z,100611.47
2023-03-06T03:03:23.389Z,100596.66
2023-03-06T03:08:28.552Z,100602.09
2023-03-06T03:13:35.681Z,100588.59
2023-03-06T03:18:38.641Z,100582.81
2023-03-06T03:23:41.836Z,100578.69
2023-03-06T05:16:17.422Z,100553.09
2023-03-06T05:21:20.416Z,100553.97
2023-03-06T05:26:22.975Z,100555.28
2023-03-06T05:31:25.479Z,100564.28
2023-03-06T05:36:28.104Z,100568.31
2023-03-06T05:41:30.967Z,100582.66
2023-03-06T05:46:33.427Z,100565.13
2023-03-06T05:51:36.581Z,100556.59
2023-03-06T05:56:40.269Z,100542.63
2023-03-06T06:01:46.490Z,100549.22
2023-03-06T06:06:56.283Z,100544.66
2023-03-06T06:12:01.914Z,100543.84
2023-03-06T06:17:04.863Z,100533.97
2023-03-06T06:22:07.290Z,100538.81
2023-03-06T06:27:09.745Z,100526.13
2023-03-06T06:32:12.248Z,100528.50
2023-03-06T06:37:14.738Z,100521.41
2023-03-06T06:42:38.894Z,100516.97
2023-03-06T06:47:43.703Z,100503.50
2023-03-06T06:52:46.544Z,100506.66
2023-03-06T06:57:48.921Z,100504.28
2023-03-06T07:02:51.556Z,100504.50
2023-03-06T07:07:54.040Z,100494.09
2023-03-06T07:12:56.873Z,100495.06
2023-03-06T07:18:01.004Z,100495.88
2023-03-06T07:23:03.519Z,100481.59
2023-03-06T07:28:06.281Z,100501.53
2023-03-06T07:33:09.337Z,100507.47
2023-03-06T07:38:12.178Z,100506.50
2023-03-06T07:43:19.496Z,100510.38
2023-03-06T07:48:29.609Z,100501.78
2023-03-06T07:53:32.900Z,100508.75
2023-03-06T07:58:41.342Z,100485.84
2023-03-06T08:03:44.272Z,100496.84
2023-03-06T08:08:48.408Z,100496.25
2023-03-06T08:13:53.070Z,100487.88
2023-03-06T08:18:56.449Z,100490.31
2023-03-06T08:23:59.462Z,100485.41
2023-03-06T08:29:02.791Z,100488.28
2023-03-06T08:34:12.966Z,100485.41
2023-03-06T08:39:15.505Z,100472.28
2023-03-06T08:44:18.076Z,100482.84
2023-03-06T08:49:20.733Z,100486.41
2023-03-06T08:54:23.223Z,100485.59
2023-03-06T08:59:25.757Z,100464.94
2023-03-06T09:04:31.354Z,100456.31
2023-03-06T09:09:33.872Z,100448.16
2023-03-06T09:14:36.284Z,100454.69
2023-03-06T09:19:38.855Z,100447.75
2023-03-06T09:24:41.387Z,100457.50
2023-03-06T09:29:43.882Z,100447.31
2023-03-06T09:34:46.336Z,100446.56
2023-03-06T09:39:50.321Z,100431.44
2023-03-06T09:45:04.279Z,100438.06
2023-03-06T09:50:25.354Z,100437.50
2023-03-06T09:55:33.000Z,100436.41
2023-03-06T10:00:58.390Z,100438.56
2023-03-06T10:06:30.469Z,100437.03
2023-03-06T10:11:43.832Z,100436.69
2023-03-06T10:16:46.547Z,100454.09
2023-03-06T10:22:04.316Z,100456.03
2023-03-06T10:27:17.073Z,100465.22
2023-03-06T10:32:46.097Z,100464.13
2023-03-06T10:37:50.424Z,100453.09
2023-03-06T10:43:09.390Z,100448.19
2023-03-06T10:48:20.343Z,100443.66
2023-03-06T10:53:29.442Z,100445.84
2023-03-06T10:58:33.576Z,100432.91
2023-03-06T11:03:37.181Z,100436.25
2023-03-06T11:08:41.149Z,100455.03
2023-03-06T11:13:44.751Z,100442.00
2023-03-06T11:19:18.028Z,100457.56
2023-03-06T11:24:22.797Z,100457.97
2023-03-06T11:29:43.613Z,100457.34
2023-03-06T11:35:14.140Z,100477.84
2023-03-06T11:41:00.140Z,100473.38
2023-03-06T11:46:37.199Z,100479.69
2023-03-06T11:51:48.442Z,100488.50
2023-03-06T11:57:12.990Z,100483.38
2023-03-06T12:02:37.950Z,100484.16
2023-03-06T12:07:48.799Z,100479.22
2023-03-06T12:13:00.568Z,100496.59
2023-03-06T12:18:12.253Z,100495.88
2023-03-06T12:23:23.654Z,100498.84
2023-03-06T12:28:47.338Z,100485.50
2023-03-06T12:33:55.712Z,100504.13
2023-03-06T12:39:12.966Z,100494.84
2023-03-06T12:44:24.173Z,100509.84
2023-03-06T12:49:32.980Z,100510.75
2023-03-06T12:54:42.022Z,100501.38
2023-03-06T12:59:48.876Z,100512.00
2023-03-06T13:05:13.053Z,100519.06
2023-03-06T13:10:34.888Z,100529.31
2023-03-06T13:15:42.852Z,100539.63
2023-03-06T13:20:46.370Z,100553.03
2023-03-06T13:25:50.540Z,100557.56
2023-03-06T13:30:53.450Z,100547.50
2023-03-06T13:35:56.964Z,100556.88
2023-03-06T13:41:21.147Z,100553.28
2023-03-06T13:46:35.657Z,100567.13
2023-03-06T13:51:41.176Z,100573.44
2023-03-06T13:57:04.322Z,100564.81
2023-03-06T14:02:28.592Z,100575.91
2023-03-06T14:07:40.377Z,100585.34
2023-03-06T14:13:13.341Z,100571.94
2023-03-06T14:18:42.700Z,100584.47
2023-03-06T14:23:47.451Z,100613.16
2023-03-06T14:28:53.034Z,100613.16
2023-03-06T14:34:01.286Z,100616.66
2023-03-06T14:39:14.123Z,100627.03
2023-03-06T14:44:18.368Z,100644.69
2023-03-06T14:49:22.590Z,100647.75
2023-03-06T14:54:29.772Z,100657.31
2023-03-06T14:59:56.614Z,100661.63
2023-03-06T15:05:05.732Z,100671.28
2023-03-06T15:10:21.666Z,100672.78
2023-03-06T15:15:30.750Z,100683.72
2023-03-06T15:20:54.076Z,100699.00
2023-03-06T15:26:02.361Z,100691.09
2023-03-06T15:31:11.049Z,100708.84
2023-03-06T15:36:27.947Z,100725.63
2023-03-06T15:41:39.025Z,100736.22
2023-03-06T15:46:42.354Z,100742.72
2023-03-06T15:51:45.028Z,100751.63
2023-03-06T15:56:49.943Z,100761.03
2023-03-06T16:01:53.366Z,100757.72
2023-03-06T16:06:55.982Z,100764.50
2023-03-06T16:11:59.710Z,100771.75
2023-03-06T16:17:02.321Z,100784.25
2023-03-06T16:22:04.799Z,100781.31
2023-03-06T16:27:07.385Z,100803.84
2023-03-06T16:32:11.882Z,100803.53
2023-03-06T16:37:14.521Z,100812.03
2023-03-06T16:42:17.898Z,100813.69
2023-03-06T16:47:20.390Z,100827.34
2023-03-06T16:52:22.950Z,100828.31
2023-03-06T16:57:25.624Z,100870.00
2023-03-06T17:02:28.108Z,100852.53
2023-03-06T17:07:33.325Z,100858.78
2023-03-06T17:12:36.250Z,100862.38
2023-03-06T17:17:39.100Z,100875.03
2023-03-06T17:22:46.487Z,100869.06
2023-03-06T17:27:49.148Z,100881.06
2023-03-06T17:32:51.661Z,100892.72
2023-03-06T17:37:59.013Z,100898.09
2023-03-06T17:43:01.637Z,100905.13
2023-03-06T17:48:04.345Z,100925.97
2023-03-06T17:53:06.938Z,100925.66
2023-03-06T17:58:12.091Z,100924.31
2023-03-06T18:03:15.031Z,100931.03
2023-03-06T18:08:17.489Z,100931.13
2023-03-06T18:13:20.354Z,100938.88
2023-03-06T18:18:23.655Z,100946.03
2023-03-06T18:23:27.032Z,100952.84
2023-03-06T18:28:31.020Z,100955.94
2023-03-06T18:33:33.617Z,100954.59
2023-03-06T18:38:36.146Z,100952.94
2023-03-06T18:43:39.319Z,100959.47
2023-03-06T18:48:41.841Z,100965.19
2023-03-06T18:53:44.591Z,100973.91
2023-03-06T18:58:48.520Z,100976.81
2023-03-06T19:03:51.065Z,100976.47
2023-03-06T19:08:58.931Z,100992.38
2023-03-06T19:14:01.934Z,100985.25
2023-03-06T19:19:04.485Z,101002.69
2023-03-06T19:24:13.406Z,101008.50
2023-03-06T19:29:15.924Z,101017.69
2023-03-06T19:34:19.060Z,101026.53
2023-03-06T19:39:21.604Z,101035.97
2023-03-06T19:44:27.201Z,101041.53
2023-03-06T19:49:30.432Z,101050.66
2023-03-06T19:54:33.264Z,101050.81
2023-03-06T19:59:36.007Z,101068.16
2023-03-06T20:04:38.827Z,101061.13
2023-03-06T20:09:41.409Z,101070.94
2023-03-06T20:14:46.296Z,101074.41
2023-03-06T20:19:48.783Z,101065.41
2023-03-06T20:24:51.369Z,101074.78
2023-03-06T20:29:53.968Z,101073.81
2023-03-06T20:34:56.448Z,101081.69
2023-03-06T20:39:59.082Z,101075.50
2023-03-06T20:45:01.599Z,101073.19
2023-03-06T20:50:06.433Z,101087.16
2023-03-06T20:55:09.467Z,101095.06
2023-03-06T21:00:12.424Z,101095.88
2023-03-06T21:05:15.034Z,101115.81
2023-03-06T21:10:17.703Z,101116.78
2023-03-06T21:15:22.783Z,101116.50
2023-03-06T21:20:25.220Z,101119.00
2023-03-06T21:25:29.136Z,101125.91
2023-03-06T21:30:32.890Z,101133.66
2023-03-06T21:35:40.916Z,101136.00
2023-03-06T21:40:44.916Z,101133.06
2023-03-06T21:45:49.344Z,101134.34
2023-03-06T21:50:51.991Z,101152.03
2023-03-06T22:01:27.186Z,101162.25
2023-03-06T22:06:32.036Z,101162.78
2023-03-06T22:11:37.519Z,101178.69
2023-03-06T22:16:40.129Z,101175.66
2023-03-06T22:21:42.957Z,101165.97
2023-03-06T22:26:45.469Z,101170.00
2023-03-06T22:31:47.958Z,101173.28
2023-03-06T22:36:50.748Z,101175.78
2023-03-06T22:41:56.256Z,101189.31
2023-03-06T22:46:58.690Z,101199.53
2023-03-06T22:52:01.179Z,101204.66
2023-03-06T22:57:04.602Z,101222.88
2023-03-06T23:02:08.347Z,101232.69
2023-03-06T23:07:10.957Z,101236.00
2023-03-06T23:12:13.444Z,101236.25
2023-03-06T23:17:35.036Z,101233.34
2023-03-06T23:22:55.893Z,101239.16
2023-03-06T23:28:16.763Z,101225.31
2023-03-06T23:33:19.528Z,101240.94
2023-03-06T23:38:21.913Z,101241.25
2023-03-06T23:43:24.445Z,101226.84
2023-03-06T23:48:29.797Z,101249.53
2023-03-06T23:53:32.259Z,101246.91
2023-03-06T23:58:35.566Z,101249.31
